Boggan Bend, Mississippi
Current Conditions -  °F | °C
As of 7:53 PM on Monday 24 Nov 2014 (Local Time) from KTUP Reporting Station
Clear Clear  
Wind Chill: 48°   Ceiling: Unl
Heat Index: 48°   Visibility: 10mi
Dew Point: 34°   Wind: 0mph
Humidity: 58%   Direction: NA
Pressure: 30.03"   Gusts: NA
Location:  34.433°N, 88.7018°W
Report Text: KTUP 250153Z 00000KT 10SM CLR 09/01 A3003 RMK AO2 SLP169 T00890011
Loading
Personal Weather Stations






























Interactive Weather Map New forecast layout! Learn more

10-Day Weather Forecast

Advertisements
Track Severe Weather on mobile